Time;durP1;ratioP1;P1;durP2;ratioP2;P2;SDS_P1;SDS_P2;PMS_P1;PMS_P2;Temp;Humidity;BMP_temperature;BMP_pressure;BME280_temperature;BME280_humidity;BME280_pressure;Samples;Min_cycle;Max_cycle;Signal;HPM_P1;HPM_P2
2022/03/09 00:00:45;;;;;;;6.15;4.35;;;4.20;86.40;;;;;;635681;226;26810;-61
2022/03/09 00:03:13;;;;;;;6.95;4.50;;;4.10;85.40;;;;;;635352;226;26527;-62
2022/03/09 00:05:40;;;;;;;6.32;4.70;;;4.00;86.90;;;;;;635328;226;26778;-62
2022/03/09 00:08:08;;;;;;;6.80;4.47;;;4.10;86.50;;;;;;635359;226;26580;-62
2022/03/09 00:10:36;;;;;;;5.53;4.57;;;4.10;86.20;;;;;;635322;226;26584;-62
2022/03/09 00:13:04;;;;;;;6.62;5.28;;;4.10;85.40;;;;;;635260;226;26567;-67
2022/03/09 00:15:32;;;;;;;6.50;4.87;;;4.00;85.20;;;;;;635335;226;26852;-63
2022/03/09 00:17:59;;;;;;;8.25;4.78;;;4.00;84.90;;;;;;635369;226;26611;-63
2022/03/09 00:20:26;;;;;;;9.55;4.90;;;3.80;84.90;;;;;;635323;226;26769;-63
2022/03/09 00:22:53;;;;;;;8.40;4.47;;;3.70;85.40;;;;;;635308;226;26554;-63
2022/03/09 00:25:20;;;;;;;6.12;4.45;;;3.70;85.30;;;;;;635338;226;26822;-63
2022/03/09 00:27:48;;;;;;;8.95;4.62;;;3.70;85.50;;;;;;635329;226;26545;-63
2022/03/09 00:30:16;;;;;;;5.65;4.47;;;3.60;85.50;;;;;;635347;226;26540;-63
2022/03/09 00:32:43;;;;;;;10.10;4.72;;;3.60;85.70;;;;;;635329;226;26552;-63
2022/03/09 00:35:11;;;;;;;11.60;4.43;;;3.50;86.00;;;;;;635321;226;26792;-63
2022/03/09 00:37:38;;;;;;;6.22;4.62;;;3.50;86.00;;;;;;636681;224;26788;-63
2022/03/09 00:40:06;;;;;;;4.37;3.83;;;3.50;86.10;;;;;;636665;226;26533;-63
2022/03/09 00:42:37;;;;;;;5.90;4.15;;;3.50;86.40;;;;;;636656;226;26603;-63
2022/03/09 00:45:05;;;;;;;6.37;4.40;;;3.40;86.40;;;;;;635934;226;26497;-63
2022/03/09 00:47:32;;;;;;;6.78;4.03;;;3.40;86.60;;;;;;636306;226;26554;-63
2022/03/09 00:49:59;;;;;;;4.90;3.78;;;3.40;86.90;;;;;;636361;226;26503;-63
2022/03/09 00:52:27;;;;;;;3.65;3.35;;;3.30;87.50;;;;;;636043;226;26996;-63
2022/03/09 00:54:54;;;;;;;5.60;4.40;;;3.30;87.50;;;;;;635750;226;27184;-63
2022/03/09 00:57:22;;;;;;;5.35;3.87;;;3.20;87.90;;;;;;635509;226;26587;-63
2022/03/09 00:59:49;;;;;;;6.22;4.32;;;3.20;87.90;;;;;;635560;226;26821;-63
2022/03/09 01:02:17;;;;;;;4.80;4.28;;;3.20;88.30;;;;;;635578;226;26514;-63
2022/03/09 01:04:45;;;;;;;4.03;3.67;;;3.20;88.40;;;;;;635611;226;26529;-63
2022/03/09 01:07:12;;;;;;;7.90;4.07;;;3.20;88.50;;;;;;635629;226;26774;-63
2022/03/09 01:09:39;;;;;;;4.55;3.90;;;3.20;88.70;;;;;;635653;226;26543;-63
2022/03/09 01:12:06;;;;;;;6.03;4.20;;;3.10;88.80;;;;;;635571;226;26768;-63
2022/03/09 01:14:33;;;;;;;4.37;3.95;;;3.10;89.10;;;;;;635353;226;26819;-63
2022/03/09 01:17:01;;;;;;;4.72;4.03;;;3.10;89.30;;;;;;635341;226;26533;-63
2022/03/09 01:19:29;;;;;;;4.90;4.30;;;3.10;89.30;;;;;;635380;226;26565;-63
2022/03/09 01:21:57;;;;;;;6.62;4.10;;;3.10;89.60;;;;;;635251;226;26545;-63
2022/03/09 01:24:24;;;;;;;4.47;3.97;;;3.00;89.40;;;;;;635347;226;26777;-63
2022/03/09 01:26:51;;;;;;;3.95;3.60;;;3.00;89.60;;;;;;635357;226;26541;-63
2022/03/09 01:29:18;;;;;;;5.10;3.80;;;3.00;89.80;;;;;;635320;226;26777;-63
2022/03/09 01:31:46;;;;;;;5.30;4.03;;;2.90;90.10;;;;;;635330;226;26580;-63
2022/03/09 01:34:14;;;;;;;3.85;3.40;;;2.90;90.20;;;;;;635365;226;26536;-63
2022/03/09 01:36:42;;;;;;;5.15;3.72;;;2.90;90.30;;;;;;635379;226;26520;-63
2022/03/09 01:39:09;;;;;;;3.87;3.50;;;2.90;90.30;;;;;;635330;226;26761;-63
2022/03/09 01:41:37;;;;;;;3.80;3.50;;;2.90;90.50;;;;;;635324;226;26544;-63
2022/03/09 01:44:08;;;;;;;4.15;3.72;;;2.80;90.60;;;;;;635259;225;26792;-63
2022/03/09 01:46:35;;;;;;;4.18;3.60;;;2.80;90.70;;;;;;635303;226;26536;-63
2022/03/09 01:49:03;;;;;;;3.85;3.53;;;2.70;90.90;;;;;;636545;224;26638;-63
2022/03/09 01:51:32;;;;;;;3.60;3.30;;;2.70;91.00;;;;;;636693;225;27095;-63
2022/03/09 01:53:59;;;;;;;4.10;3.70;;;2.70;91.00;;;;;;636331;226;26647;-63
2022/03/09 01:56:28;;;;;;;4.10;3.70;;;2.70;90.90;;;;;;636295;226;26589;-63
2022/03/09 01:58:55;;;;;;;4.12;3.72;;;2.70;91.50;;;;;;635965;226;26824;-63
2022/03/09 02:01:23;;;;;;;4.22;3.78;;;2.70;91.50;;;;;;635933;226;26814;-63
2022/03/09 02:03:50;;;;;;;4.22;3.70;;;2.70;91.40;;;;;;635924;226;26582;-63
2022/03/09 02:06:17;;;;;;;4.60;3.60;;;2.70;91.40;;;;;;635851;226;26791;-63
2022/03/09 02:11:18;;;;;;;4.30;3.90;;;2.60;91.50;;;;;;635624;226;26882;-63
2022/03/09 02:13:46;;;;;;;4.00;3.35;;;2.60;91.60;;;;;;635621;226;26574;-63
2022/03/09 02:16:14;;;;;;;4.40;3.67;;;2.60;91.60;;;;;;635605;226;26570;-63
2022/03/09 02:18:42;;;;;;;4.40;4.00;;;2.60;91.80;;;;;;635645;226;26534;-63
2022/03/09 02:21:10;;;;;;;4.75;3.50;;;2.60;91.80;;;;;;635634;226;26546;-62
2022/03/09 02:23:37;;;;;;;4.10;3.70;;;2.50;91.70;;;;;;635577;226;26553;-62
2022/03/09 02:26:04;;;;;;;3.95;3.60;;;2.50;91.80;;;;;;635367;226;26531;-62
2022/03/09 02:28:31;;;;;;;3.58;3.37;;;2.50;91.80;;;;;;635377;226;26909;-62
2022/03/09 02:30:58;;;;;;;4.12;3.72;;;2.50;91.80;;;;;;634986;226;26536;-72
2022/03/09 02:33:27;;;;;;;5.65;3.92;;;2.40;92.20;;;;;;635261;225;26571;-72
2022/03/09 02:35:54;;;;;;;4.00;3.42;;;2.50;92.00;;;;;;635336;226;26751;-72
2022/03/09 02:38:21;;;;;;;4.18;3.58;;;2.50;92.20;;;;;;635323;226;26537;-72
2022/03/09 02:40:49;;;;;;;4.12;3.75;;;2.50;92.10;;;;;;635282;226;26823;-72
2022/03/09 02:43:16;;;;;;;3.67;3.37;;;2.40;92.20;;;;;;635215;226;26573;-72
2022/03/09 02:45:43;;;;;;;3.85;3.45;;;2.40;92.10;;;;;;635280;226;26536;-72
2022/03/09 02:48:11;;;;;;;3.58;3.25;;;2.40;92.40;;;;;;635223;226;26586;-72
2022/03/09 02:50:38;;;;;;;3.90;3.50;;;2.40;92.40;;;;;;635398;226;26838;-72
2022/03/09 02:53:06;;;;;;;4.18;3.55;;;2.40;92.40;;;;;;635243;226;26563;-72
2022/03/09 02:55:33;;;;;;;4.00;3.70;;;2.30;92.50;;;;;;635321;226;26941;-72
2022/03/09 02:58:01;;;;;;;3.97;3.42;;;2.30;92.70;;;;;;635262;226;26544;-72
2022/03/09 03:00:29;;;;;;;3.28;2.97;;;2.30;92.70;;;;;;636446;224;26580;-72
2022/03/09 03:02:57;;;;;;;3.80;3.50;;;2.30;92.70;;;;;;636708;226;26551;-73
2022/03/09 03:05:25;;;;;;;3.67;3.37;;;2.30;92.70;;;;;;636301;226;26609;-73
2022/03/09 03:07:53;;;;;;;4.18;3.53;;;2.30;92.80;;;;;;636242;226;26637;-73
2022/03/09 03:10:20;;;;;;;3.85;3.50;;;2.30;92.80;;;;;;635993;226;26595;-72
2022/03/09 03:12:48;;;;;;;3.87;3.50;;;2.20;92.70;;;;;;635921;226;26604;-72
2022/03/09 03:15:15;;;;;;;3.45;3.12;;;2.20;92.80;;;;;;636007;226;26902;-72
2022/03/09 03:17:42;;;;;;;5.25;3.20;;;2.20;92.80;;;;;;635925;226;26515;-72
2022/03/09 03:20:10;;;;;;;4.53;3.53;;;2.20;92.90;;;;;;635633;226;26537;-72
2022/03/09 03:22:37;;;;;;;5.10;3.47;;;2.20;92.90;;;;;;635567;226;26582;-72
2022/03/09 03:25:05;;;;;;;4.12;3.72;;;2.10;93.00;;;;;;635717;226;26783;-72
2022/03/09 03:27:32;;;;;;;3.60;3.30;;;2.10;93.00;;;;;;635667;226;26549;-72
2022/03/09 03:29:59;;;;;;;4.00;3.60;;;2.10;93.10;;;;;;635707;226;26521;-72
2022/03/09 03:32:26;;;;;;;4.50;3.50;;;2.10;93.00;;;;;;635600;226;26794;-72
2022/03/09 03:34:53;;;;;;;3.67;3.37;;;2.10;93.10;;;;;;635606;226;26532;-72
2022/03/09 03:37:21;;;;;;;4.43;3.78;;;2.10;93.20;;;;;;635365;226;26529;-62
2022/03/09 03:39:49;;;;;;;4.05;3.53;;;2.10;93.40;;;;;;635349;226;26520;-62
2022/03/09 03:42:17;;;;;;;3.50;3.20;;;2.10;93.40;;;;;;635242;226;26801;-62
2022/03/09 03:44:45;;;;;;;4.22;3.83;;;2.10;93.60;;;;;;635359;226;26585;-62
2022/03/09 03:47:12;;;;;;;5.00;3.67;;;2.10;93.80;;;;;;635336;226;26599;-62
2022/03/09 03:49:40;;;;;;;3.85;3.45;;;2.00;93.70;;;;;;624720;226;26579;-62
2022/03/09 03:52:07;;;;;;;4.12;3.72;;;2.10;93.80;;;;;;622835;224;26595;-63
2022/03/09 03:54:35;;;;;;;3.67;3.37;;;2.00;94.00;;;;;;622927;230;26600;-63
2022/03/09 03:57:02;;;;;;;3.92;3.60;;;2.00;94.00;;;;;;622855;230;26588;-63
2022/03/09 03:59:29;;;;;;;3.92;3.62;;;2.10;94.10;;;;;;622891;229;26955;-63
2022/03/09 04:01:56;;;;;;;4.07;3.70;;;2.00;93.90;;;;;;622838;229;26574;-62
2022/03/09 04:04:24;;;;;;;4.12;3.78;;;2.00;94.10;;;;;;622978;229;26586;-62
2022/03/09 04:06:52;;;;;;;3.85;3.50;;;2.20;93.80;;;;;;622923;229;26578;-63
2022/03/09 04:09:19;;;;;;;3.62;3.33;;;2.10;93.80;;;;;;622974;229;26580;-63
2022/03/09 04:11:46;;;;;;;4.53;3.83;;;2.20;93.90;;;;;;623855;224;26583;-63
2022/03/09 04:14:13;;;;;;;3.62;3.33;;;2.10;93.70;;;;;;624317;228;26759;-63
2022/03/09 04:16:41;;;;;;;4.05;3.65;;;2.10;93.90;;;;;;622557;230;26542;-63
2022/03/09 04:19:08;;;;;;;3.72;3.42;;;2.20;93.90;;;;;;623812;228;26810;-62
2022/03/09 04:21:36;;;;;;;3.80;3.50;;;2.30;93.30;;;;;;623614;229;26530;-63
2022/03/09 04:24:05;;;;;;;3.92;3.60;;;2.40;93.30;;;;;;623577;231;26563;-63
2022/03/09 04:26:31;;;;;;;4.12;3.65;;;2.40;93.30;;;;;;623592;225;26532;-63
2022/03/09 04:28:59;;;;;;;4.22;3.83;;;2.30;93.20;;;;;;623443;229;26997;-63
2022/03/09 04:31:27;;;;;;;4.15;3.70;;;2.30;93.40;;;;;;623220;231;26572;-63
2022/03/09 04:33:55;;;;;;;4.28;3.87;;;2.30;93.40;;;;;;623253;229;26636;-63
2022/03/09 04:36:22;;;;;;;4.03;3.67;;;2.20;93.50;;;;;;623266;229;26839;-63
2022/03/09 04:38:49;;;;;;;4.07;3.72;;;2.20;93.70;;;;;;623281;229;26584;-63
2022/03/09 04:41:16;;;;;;;4.45;3.78;;;2.20;93.50;;;;;;623256;231;26571;-63
2022/03/09 04:43:44;;;;;;;3.90;3.58;;;2.20;92.70;;;;;;623195;229;26626;-63
2022/03/09 04:46:12;;;;;;;4.10;3.70;;;2.20;92.90;;;;;;623295;229;26604;-63
2022/03/09 04:48:40;;;;;;;4.15;3.80;;;2.20;92.60;;;;;;622975;229;26825;-64
2022/03/09 04:51:07;;;;;;;4.30;3.90;;;2.20;92.40;;;;;;622958;230;26587;-63
2022/03/09 04:53:34;;;;;;;3.87;3.58;;;2.20;92.40;;;;;;622939;229;26807;-63
2022/03/09 04:56:02;;;;;;;4.28;3.83;;;2.20;92.30;;;;;;622987;229;26604;-63
2022/03/09 04:58:29;;;;;;;4.20;3.80;;;2.20;92.30;;;;;;622957;229;26583;-63
2022/03/09 05:00:56;;;;;;;3.95;3.65;;;2.20;92.40;;;;;;622969;229;26819;-63
2022/03/09 05:03:24;;;;;;;3.97;3.60;;;2.20;92.60;;;;;;622928;230;26610;-64
2022/03/09 05:05:51;;;;;;;4.20;3.80;;;2.10;93.10;;;;;;622970;229;27211;-64
2022/03/09 05:08:19;;;;;;;3.87;3.58;;;2.00;92.80;;;;;;623009;229;26814;-63
2022/03/09 05:10:47;;;;;;;3.97;3.58;;;2.10;92.90;;;;;;622946;229;26584;-64
2022/03/09 05:13:15;;;;;;;3.97;3.55;;;2.00;92.90;;;;;;622902;229;26604;-64
2022/03/09 05:15:42;;;;;;;4.95;3.40;;;2.00;92.90;;;;;;622965;230;26588;-64
2022/03/09 05:18:09;;;;;;;3.75;3.45;;;2.00;92.90;;;;;;622937;229;26608;-63
2022/03/09 05:20:36;;;;;;;4.05;3.65;;;2.00;93.00;;;;;;622946;229;26960;-64
2022/03/09 05:23:04;;;;;;;4.00;3.62;;;2.00;92.90;;;;;;623578;228;26607;-63
2022/03/09 05:25:31;;;;;;;4.30;3.90;;;2.00;92.90;;;;;;624378;229;26585;-63
2022/03/09 05:27:59;;;;;;;3.95;3.55;;;2.00;92.80;;;;;;624065;229;26540;-63
2022/03/09 05:30:26;;;;;;;5.00;4.32;;;2.00;92.80;;;;;;623975;229;26817;-63
2022/03/09 05:32:54;;;;;;;3.83;3.53;;;2.00;92.70;;;;;;623666;229;26559;-64
2022/03/09 05:35:21;;;;;;;4.07;3.70;;;2.00;92.50;;;;;;623629;229;26530;-64
2022/03/09 05:37:49;;;;;;;3.92;3.58;;;2.10;92.30;;;;;;623601;224;26548;-64
2022/03/09 05:40:17;;;;;;;4.10;3.72;;;2.00;92.20;;;;;;623566;229;26548;-63
2022/03/09 05:42:44;;;;;;;3.95;3.65;;;2.00;92.20;;;;;;623251;229;26844;-64
2022/03/09 05:45:12;;;;;;;4.03;3.62;;;2.00;92.30;;;;;;623305;229;26572;-63
2022/03/09 05:47:38;;;;;;;4.12;3.78;;;2.00;92.40;;;;;;623255;229;26960;-64
2022/03/09 05:50:06;;;;;;;3.92;3.55;;;2.00;92.50;;;;;;623296;229;26611;-64
2022/03/09 05:52:33;;;;;;;4.00;3.70;;;1.90;92.80;;;;;;623248;229;26624;-64
2022/03/09 05:55:01;;;;;;;4.00;3.70;;;1.90;92.50;;;;;;623314;229;26804;-64
2022/03/09 05:57:28;;;;;;;3.92;3.62;;;1.90;92.60;;;;;;623272;229;26575;-63
2022/03/09 05:59:56;;;;;;;4.28;3.85;;;2.00;92.60;;;;;;623063;229;26582;-64
2022/03/09 06:02:24;;;;;;;4.18;3.80;;;2.10;92.70;;;;;;622846;229;26617;-64
2022/03/09 06:04:51;;;;;;;3.67;3.40;;;2.10;92.70;;;;;;622943;231;26592;-63
2022/03/09 06:07:19;;;;;;;4.00;3.60;;;2.10;92.70;;;;;;622945;231;26583;-63
2022/03/09 06:09:46;;;;;;;4.32;4.03;;;2.10;92.50;;;;;;622953;230;26805;-63
2022/03/09 06:12:15;;;;;;;3.92;3.62;;;2.10;92.60;;;;;;622955;229;26630;-63
2022/03/09 06:14:40;;;;;;;4.15;3.85;;;2.10;92.60;;;;;;623286;229;27040;-63
2022/03/09 06:17:08;;;;;;;4.85;3.78;;;2.20;92.20;;;;;;623306;230;26551;-64
2022/03/09 06:19:36;;;;;;;4.05;3.70;;;2.30;92.30;;;;;;623348;229;26571;-63
2022/03/09 06:22:03;;;;;;;3.87;3.58;;;2.30;92.30;;;;;;623165;229;26595;-63
2022/03/09 06:24:31;;;;;;;4.20;3.90;;;2.30;92.30;;;;;;622993;231;26588;-64
2022/03/09 06:26:59;;;;;;;3.90;3.60;;;2.30;92.50;;;;;;622980;230;26572;-64
2022/03/09 06:29:26;;;;;;;4.28;3.87;;;2.30;92.50;;;;;;623015;229;26792;-65
2022/03/09 06:31:53;;;;;;;4.30;3.90;;;2.40;92.30;;;;;;622851;229;26582;-63
2022/03/09 06:34:20;;;;;;;3.92;3.53;;;2.40;92.30;;;;;;623424;228;26806;-63
2022/03/09 06:36:47;;;;;;;3.47;3.17;;;2.50;92.20;;;;;;624516;229;26596;-64
2022/03/09 06:39:16;;;;;;;4.00;3.70;;;2.50;91.90;;;;;;624075;229;26552;-63
2022/03/09 06:41:43;;;;;;;4.30;3.90;;;2.70;91.90;;;;;;623757;229;26604;-63
2022/03/09 06:44:12;;;;;;;4.05;3.75;;;2.70;92.00;;;;;;623681;229;26570;-63
2022/03/09 06:46:38;;;;;;;3.97;3.58;;;2.80;91.50;;;;;;623522;230;27219;-63
2022/03/09 06:49:06;;;;;;;3.95;3.65;;;2.80;91.50;;;;;;623570;229;26851;-63
2022/03/09 06:51:33;;;;;;;4.10;3.70;;;2.90;91.20;;;;;;623539;229;26543;-64
2022/03/09 06:54:00;;;;;;;4.15;3.75;;;2.90;90.90;;;;;;623283;229;26770;-64
2022/03/09 06:56:28;;;;;;;3.53;3.22;;;3.00;90.60;;;;;;623296;230;26600;-62
2022/03/09 06:58:56;;;;;;;4.22;3.83;;;3.10;90.70;;;;;;623285;229;26587;-63
2022/03/09 07:01:25;;;;;;;4.35;3.90;;;3.20;90.40;;;;;;623207;229;26833;-65
2022/03/09 07:03:52;;;;;;;4.03;3.62;;;3.20;90.40;;;;;;623249;229;26611;-63
2022/03/09 07:06:20;;;;;;;8.52;3.80;;;3.30;90.20;;;;;;623294;229;26724;-63
2022/03/09 07:08:47;;;;;;;10.20;3.72;;;3.30;90.20;;;;;;623303;229;26809;-62
2022/03/09 07:11:14;;;;;;;7.82;3.87;;;3.40;88.60;;;;;;623106;229;26553;-62
2022/03/09 07:13:41;;;;;;;4.12;3.75;;;3.50;89.40;;;;;;622927;230;26967;-63
2022/03/09 07:16:08;;;;;;;5.72;4.20;;;3.50;88.70;;;;;;622987;229;26585;-62
2022/03/09 07:18:36;;;;;;;11.07;4.47;;;3.60;87.90;;;;;;624399;225;26816;-63
2022/03/09 07:21:04;;;;;;;4.45;4.05;;;3.70;87.40;;;;;;626277;225;26601;-63
2022/03/09 07:23:32;;;;;;;4.82;4.28;;;3.90;86.90;;;;;;623219;229;26628;-63
2022/03/09 07:25:59;;;;;;;4.55;4.10;;;3.80;86.80;;;;;;624207;229;26740;-63
2022/03/09 07:28:26;;;;;;;5.30;4.47;;;3.90;86.80;;;;;;625712;229;26592;-62
2022/03/09 07:30:53;;;;;;;4.70;4.30;;;4.00;86.80;;;;;;625014;226;26811;-62
2022/03/09 07:33:21;;;;;;;5.55;4.50;;;4.00;86.80;;;;;;630822;225;26843;-63
2022/03/09 07:35:48;;;;;;;5.03;4.20;;;4.20;85.90;;;;;;630144;225;26604;-64
2022/03/09 07:38:16;;;;;;;4.60;4.22;;;4.20;85.60;;;;;;638008;225;26539;-63
2022/03/09 07:40:43;;;;;;;4.68;4.28;;;4.40;84.90;;;;;;624327;225;26564;-62
2022/03/09 07:43:11;;;;;;;6.62;4.47;;;4.40;84.90;;;;;;626200;229;26532;-62
2022/03/09 07:45:38;;;;;;;8.23;4.72;;;4.50;84.10;;;;;;624775;228;26605;-61
2022/03/09 07:48:05;;;;;;;5.60;4.85;;;4.60;83.80;;;;;;624597;228;26812;-62
2022/03/09 07:50:32;;;;;;;5.32;4.82;;;4.70;83.70;;;;;;624063;229;26539;-63
2022/03/09 07:52:59;;;;;;;9.68;5.10;;;4.80;83.00;;;;;;623845;229;26597;-62
2022/03/09 07:55:27;;;;;;;7.80;5.20;;;5.00;82.20;;;;;;628677;226;26604;-62
2022/03/09 07:57:55;;;;;;;7.87;5.03;;;5.10;81.50;;;;;;627390;226;26636;-65
2022/03/09 08:00:23;;;;;;;7.80;5.37;;;5.10;81.50;;;;;;623206;229;26779;-65
2022/03/09 08:02:50;;;;;;;7.43;5.40;;;5.20;81.20;;;;;;623210;229;26547;-64
2022/03/09 08:05:17;;;;;;;7.37;4.95;;;5.30;81.40;;;;;;622985;229;27181;-64
2022/03/09 08:07:45;;;;;;;15.38;5.93;;;5.30;80.80;;;;;;622883;229;26568;-63
2022/03/09 08:10:11;;;;;;;80.32;18.95;;;5.40;81.20;;;;;;622832;229;26603;-64
2022/03/09 08:12:39;;;;;;;384.10;40.15;;;5.40;80.70;;;;;;622868;229;26581;-63
2022/03/09 08:15:07;;;;;;;579.90;50.55;;;5.50;81.10;;;;;;623183;229;27118;-62
2022/03/09 08:17:35;;;;;;;104.60;22.70;;;5.60;80.90;;;;;;623322;231;26593;-62
2022/03/09 08:20:02;;;;;;;89.43;19.90;;;5.60;80.60;;;;;;623285;229;26563;-63
2022/03/09 08:22:30;;;;;;;75.53;19.95;;;5.80;80.10;;;;;;623059;231;26622;-61
2022/03/09 08:24:58;;;;;;;67.82;17.77;;;5.90;79.50;;;;;;622940;229;26612;-61
2022/03/09 08:27:25;;;;;;;47.83;15.93;;;5.90;79.10;;;;;;622951;230;26597;-61
2022/03/09 08:29:53;;;;;;;56.47;15.65;;;6.00;78.50;;;;;;622955;229;26591;-61
2022/03/09 08:32:21;;;;;;;45.97;14.27;;;6.00;78.00;;;;;;622863;231;27157;-62
2022/03/09 08:34:48;;;;;;;43.92;12.77;;;6.00;78.30;;;;;;622968;229;26582;-62
2022/03/09 08:37:15;;;;;;;40.90;12.55;;;6.20;77.90;;;;;;623029;230;26795;-63
2022/03/09 08:39:45;;;;;;;21.85;8.63;;;6.30;77.30;;;;;;623363;229;26568;-64
2022/03/09 08:42:10;;;;;;;20.40;7.55;;;6.40;76.60;;;;;;623228;229;26893;-61
2022/03/09 08:44:37;;;;;;;19.98;8.68;;;6.50;76.40;;;;;;622980;229;26544;-62
2022/03/09 08:47:06;;;;;;;14.18;7.00;;;6.70;75.90;;;;;;622961;230;26647;-61
2022/03/09 08:49:33;;;;;;;13.57;7.50;;;6.70;75.00;;;;;;622948;229;26818;-61
2022/03/09 08:52:00;;;;;;;11.20;7.22;;;6.70;75.00;;;;;;622892;229;26810;-63
2022/03/09 08:54:28;;;;;;;12.90;6.62;;;6.80;72.70;;;;;;623019;230;26633;-63
2022/03/09 08:56:55;;;;;;;9.70;6.65;;;6.80;72.20;;;;;;622986;229;27211;-62
2022/03/09 08:59:23;;;;;;;14.87;6.57;;;6.80;71.60;;;;;;624653;228;26583;-62
2022/03/09 09:01:50;;;;;;;11.55;6.72;;;6.80;71.40;;;;;;624203;230;26540;-62
2022/03/09 09:04:17;;;;;;;10.98;6.25;;;6.90;71.00;;;;;;623967;229;26819;-62
2022/03/09 09:06:44;;;;;;;10.60;6.30;;;7.00;71.10;;;;;;623791;230;26805;-62
2022/03/09 09:09:14;;;;;;;10.00;6.47;;;7.10;70.50;;;;;;623698;229;26528;-63
2022/03/09 09:11:39;;;;;;;7.35;5.85;;;7.20;70.30;;;;;;623633;229;26788;-62
2022/03/09 09:14:07;;;;;;;13.05;6.85;;;7.20;70.60;;;;;;623706;229;26582;-62
2022/03/09 09:16:35;;;;;;;13.65;6.72;;;7.30;70.10;;;;;;623515;229;26614;-62
2022/03/09 09:19:03;;;;;;;10.57;6.37;;;7.40;70.00;;;;;;623384;229;26592;-62
2022/03/09 09:21:30;;;;;;;9.57;5.78;;;7.40;70.00;;;;;;623317;229;26607;-62
2022/03/09 09:23:57;;;;;;;8.38;5.97;;;7.40;68.80;;;;;;623286;229;26629;-63
2022/03/09 09:26:26;;;;;;;13.27;6.25;;;7.50;68.20;;;;;;623277;231;26600;-63
2022/03/09 09:28:54;;;;;;;11.68;6.03;;;7.50;68.20;;;;;;623318;229;26582;-62
2022/03/09 09:31:22;;;;;;;8.00;5.95;;;7.60;69.30;;;;;;623248;229;26613;-63
2022/03/09 09:33:49;;;;;;;7.53;5.32;;;7.60;69.20;;;;;;623154;231;26613;-63
2022/03/09 09:36:16;;;;;;;7.53;5.85;;;7.80;68.90;;;;;;622997;229;26556;-62
2022/03/09 09:38:43;;;;;;;9.45;5.62;;;7.90;67.80;;;;;;623072;229;26798;-63
2022/03/09 09:41:16;;;;;;;6.97;5.30;;;8.00;67.60;;;;;;622941;229;26609;-62
2022/03/09 09:43:39;;;;;;;8.60;5.53;;;8.00;67.60;;;;;;622892;230;26855;-62
2022/03/09 09:46:07;;;;;;;8.90;5.10;;;8.10;67.40;;;;;;622999;229;26595;-62
2022/03/09 09:48:34;;;;;;;7.28;5.57;;;8.20;66.80;;;;;;622954;229;26809;-62
2022/03/09 09:51:02;;;;;;;7.35;4.93;;;8.30;65.40;;;;;;623029;231;26575;-62
2022/03/09 09:53:31;;;;;;;7.47;5.10;;;8.40;65.30;;;;;;623010;229;26617;-62
2022/03/09 09:55:58;;;;;;;8.82;5.40;;;8.70;64.40;;;;;;622967;229;26591;-62
2022/03/09 09:58:25;;;;;;;8.82;5.87;;;8.70;64.50;;;;;;622969;231;26842;-61
2022/03/09 10:00:52;;;;;;;7.75;5.40;;;8.60;64.10;;;;;;622967;230;26602;-61
2022/03/09 10:03:19;;;;;;;8.10;5.40;;;8.50;63.20;;;;;;622974;229;26834;-62
2022/03/09 10:05:47;;;;;;;12.18;5.62;;;8.50;63.40;;;;;;622977;230;26600;-62
2022/03/09 10:08:16;;;;;;;6.65;4.72;;;8.60;63.00;;;;;;623001;229;26597;-62
2022/03/09 10:10:42;;;;;;;8.23;5.22;;;8.50;62.00;;;;;;624525;228;26615;-62
2022/03/09 10:13:16;;;;;;;6.15;5.03;;;8.50;62.00;;;;;;624178;228;26571;-62
2022/03/09 10:15:43;;;;;;;7.93;5.03;;;8.60;61.70;;;;;;624263;228;26567;-62
2022/03/09 10:18:15;;;;;;;7.03;5.00;;;8.60;62.20;;;;;;624184;228;26551;-62
2022/03/09 10:20:43;;;;;;;5.78;5.10;;;8.70;62.00;;;;;;623995;229;26495;-62
2022/03/09 10:23:10;;;;;;;6.35;4.93;;;8.60;61.90;;;;;;623922;229;26774;-62
2022/03/09 10:25:38;;;;;;;10.00;5.53;;;8.70;60.90;;;;;;623945;229;26508;-62
2022/03/09 10:28:06;;;;;;;8.18;4.62;;;8.70;60.90;;;;;;623774;229;27024;-62
2022/03/09 10:30:33;;;;;;;5.28;4.75;;;8.70;60.60;;;;;;623656;230;26543;-62
2022/03/09 10:33:00;;;;;;;6.60;4.82;;;8.80;60.20;;;;;;623294;230;26571;-62
2022/03/09 10:35:46;;;;;;;7.20;5.10;;;8.90;59.70;;;;;;623150;229;26594;-62
2022/03/09 10:38:23;;;;;;;6.20;4.70;;;8.90;59.80;;;;;;623342;229;26906;-62
2022/03/09 10:40:51;;;;;;;5.45;4.00;;;8.90;59.70;;;;;;623321;229;26596;-62
2022/03/09 10:43:18;;;;;;;5.53;4.25;;;9.00;59.50;;;;;;623253;229;26818;-62
2022/03/09 10:45:58;;;;;;;9.02;5.32;;;9.10;59.80;;;;;;623181;229;26557;-61
2022/03/09 10:48:24;;;;;;;11.95;5.47;;;9.20;59.40;;;;;;622955;229;26608;-61
2022/03/09 10:50:52;;;;;;;10.85;5.78;;;9.20;58.90;;;;;;623000;229;26805;-62
2022/03/09 10:53:19;;;;;;;12.80;5.32;;;9.10;58.70;;;;;;622963;229;26599;-62
2022/03/09 10:55:46;;;;;;;8.55;4.93;;;9.20;58.70;;;;;;622982;230;26793;-63
2022/03/09 10:58:14;;;;;;;12.25;5.72;;;9.30;58.70;;;;;;621868;230;26581;-62
2022/03/09 11:00:43;;;;;;;9.10;4.55;;;9.30;58.50;;;;;;623318;230;26598;-62
2022/03/09 11:03:11;;;;;;;9.65;4.87;;;9.40;57.90;;;;;;622738;228;26592;-62
2022/03/09 11:05:47;;;;;;;11.43;4.90;;;9.40;58.20;;;;;;622998;231;26968;-62
2022/03/09 11:08:16;;;;;;;6.40;4.70;;;9.40;57.80;;;;;;623020;229;26582;-62
2022/03/09 11:10:44;;;;;;;7.97;4.40;;;9.40;57.80;;;;;;623014;224;26809;-62
2022/03/09 11:13:12;;;;;;;6.53;4.28;;;9.50;57.90;;;;;;622779;229;26640;-62
2022/03/09 11:15:39;;;;;;;9.90;4.50;;;9.50;58.30;;;;;;622964;231;26913;-62
2022/03/09 11:18:06;;;;;;;6.90;4.15;;;9.50;58.10;;;;;;623337;230;26573;-62
2022/03/09 11:20:33;;;;;;;8.02;4.22;;;9.60;58.00;;;;;;623692;229;26811;-62
2022/03/09 11:23:00;;;;;;;5.93;4.07;;;9.70;57.00;;;;;;624909;229;26585;-62
2022/03/09 11:25:27;;;;;;;10.00;4.37;;;9.70;56.50;;;;;;624456;224;26500;-62
2022/03/09 11:27:56;;;;;;;6.90;4.18;;;9.70;56.40;;;;;;624326;228;26554;-62
2022/03/09 11:30:23;;;;;;;6.62;3.75;;;9.70;56.60;;;;;;624093;227;26495;-62
2022/03/09 11:32:51;;;;;;;6.40;3.70;;;9.80;56.50;;;;;;623914;229;26782;-62
2022/03/09 11:35:30;;;;;;;5.85;4.00;;;9.90;56.80;;;;;;623925;229;26512;-62
2022/03/09 11:37:57;;;;;;;4.03;3.62;;;10.00;55.90;;;;;;623954;229;26499;-62
2022/03/09 11:40:25;;;;;;;4.43;3.58;;;9.90;56.40;;;;;;623665;229;26573;-60
2022/03/09 11:42:52;;;;;;;4.53;3.97;;;9.90;56.40;;;;;;623630;229;26827;-61
2022/03/09 11:45:34;;;;;;;5.20;3.83;;;9.90;55.90;;;;;;623670;229;26562;-61
2022/03/09 11:48:03;;;;;;;5.15;3.95;;;10.10;55.20;;;;;;623668;231;26540;-61
2022/03/09 11:50:30;;;;;;;5.62;3.92;;;10.20;55.60;;;;;;623666;230;26519;-61
2022/03/09 11:53:03;;;;;;;7.72;3.53;;;10.20;55.40;;;;;;623606;229;27116;-63
2022/03/09 11:55:31;;;;;;;6.72;3.90;;;10.20;54.70;;;;;;623629;228;26566;-62
2022/03/09 11:58:13;;;;;;;5.20;3.65;;;10.30;54.20;;;;;;623205;225;26809;-63
2022/03/09 12:00:59;;;;;;;5.87;4.07;;;10.30;53.80;;;;;;623301;230;26591;-63
2022/03/09 12:03:41;;;;;;;5.47;3.50;;;10.20;53.80;;;;;;622077;231;26621;-62
2022/03/09 12:06:20;;;;;;;6.30;3.70;;;10.20;54.10;;;;;;623010;229;26599;-62
2022/03/09 12:08:47;;;;;;;5.25;3.62;;;10.30;54.30;;;;;;623006;231;26561;-61
2022/03/09 12:11:15;;;;;;;5.07;3.53;;;10.30;53.80;;;;;;623047;230;26578;-62
2022/03/09 12:13:45;;;;;;;7.35;3.53;;;10.40;53.30;;;;;;622681;229;26819;-62
2022/03/09 12:16:17;;;;;;;3.90;3.47;;;10.40;53.70;;;;;;622975;224;26603;-62
2022/03/09 12:18:48;;;;;;;5.00;3.42;;;10.40;53.70;;;;;;622986;229;26616;-62
2022/03/09 12:21:16;;;;;;;4.35;3.53;;;10.50;53.40;;;;;;623067;231;26592;-62
2022/03/09 12:24:17;;;;;;;3.47;3.03;;;10.50;52.50;;;;;;622910;227;26616;-62
2022/03/09 12:26:46;;;;;;;4.07;3.12;;;10.50;52.60;;;;;;621527;231;27002;-62
2022/03/09 12:29:34;;;;;;;4.35;3.37;;;10.60;52.60;;;;;;622996;229;26608;-62
2022/03/09 12:32:04;;;;;;;3.53;3.22;;;10.50;51.80;;;;;;623075;228;26808;-62
2022/03/09 12:34:30;;;;;;;4.82;2.83;;;10.50;52.00;;;;;;624662;230;26595;-62
2022/03/09 12:36:57;;;;;;;5.70;3.60;;;10.60;51.40;;;;;;624104;226;26766;-62
2022/03/09 12:39:26;;;;;;;4.30;3.47;;;10.70;51.40;;;;;;623930;228;26584;-62
2022/03/09 12:41:51;;;;;;;3.95;3.55;;;10.70;50.20;;;;;;623647;229;26874;-61
2022/03/09 12:44:19;;;;;;;5.07;3.50;;;10.70;49.50;;;;;;623646;229;26511;-61
2022/03/09 12:46:46;;;;;;;5.62;3.60;;;10.80;49.20;;;;;;623541;229;26796;-61
2022/03/09 12:49:16;;;;;;;4.22;3.12;;;10.80;48.90;;;;;;623523;229;26540;-62
2022/03/09 12:51:51;;;;;;;4.05;3.55;;;10.80;49.20;;;;;;623325;228;26597;-62
2022/03/09 12:54:31;;;;;;;3.80;3.17;;;10.80;49.20;;;;;;623258;229;26654;-61
2022/03/09 12:56:58;;;;;;;3.50;3.20;;;10.80;49.60;;;;;;615656;229;26598;-61
2022/03/09 12:59:26;;;;;;;3.12;2.90;;;10.80;49.60;;;;;;622668;229;27076;-61
2022/03/09 13:01:53;;;;;;;3.45;2.95;;;10.80;49.60;;;;;;623284;230;26621;-61